sensor_id;sensor_type;location;lat;lon;timestamp;pressure;altitude;pressure_sealevel;temperature;humidity
53651;BME280;39552;45.776;15.892;2023-02-15T00:01:59;102229.03;;;2.39;100.00
53651;BME280;39552;45.776;15.892;2023-02-15T00:04:26;102224.50;;;2.26;100.00
53651;BME280;39552;45.776;15.892;2023-02-15T00:06:53;102242.34;;;2.30;100.00
53651;BME280;39552;45.776;15.892;2023-02-15T00:09:29;102225.28;;;2.12;100.00
53651;BME280;39552;45.776;15.892;2023-02-15T00:11:56;102240.41;;;2.07;100.00
53651;BME280;39552;45.776;15.892;2023-02-15T00:14:23;102223.56;;;2.17;100.00
53651;BME280;39552;45.776;15.892;2023-02-15T00:16:52;102219.91;;;2.05;100.00
53651;BME280;39552;45.776;15.892;2023-02-15T00:19:20;102230.47;;;1.91;100.00
53651;BME280;39552;45.776;15.892;2023-02-15T00:21:48;102226.03;;;1.93;100.00
53651;BME280;39552;45.776;15.892;2023-02-15T00:24:16;102217.09;;;1.82;100.00
53651;BME280;39552;45.776;15.892;2023-02-15T00:26:45;102228.66;;;1.87;100.00
53651;BME280;39552;45.776;15.892;2023-02-15T00:29:13;102234.16;;;2.05;100.00
53651;BME280;39552;45.776;15.892;2023-02-15T00:31:41;102227.88;;;1.97;100.00
53651;BME280;39552;45.776;15.892;2023-02-15T00:34:12;102210.22;;;2.17;100.00
53651;BME280;39552;45.776;15.892;2023-02-15T00:36:39;102219.13;;;2.16;100.00
53651;BME280;39552;45.776;15.892;2023-02-15T00:39:07;102226.22;;;2.16;100.00
53651;BME280;39552;45.776;15.892;2023-02-15T00:41:34;102221.59;;;1.92;100.00
53651;BME280;39552;45.776;15.892;2023-02-15T00:44:03;102235.09;;;2.12;100.00
53651;BME280;39552;45.776;15.892;2023-02-15T00:46:29;102210.09;;;2.02;100.00
53651;BME280;39552;45.776;15.892;2023-02-15T00:48:56;102215.25;;;1.77;100.00
53651;BME280;39552;45.776;15.892;2023-02-15T00:51:23;102206.41;;;1.82;100.00
53651;BME280;39552;45.776;15.892;2023-02-15T00:53:50;102210.13;;;2.08;100.00
53651;BME280;39552;45.776;15.892;2023-02-15T00:56:17;102222.63;;;2.09;100.00
53651;BME280;39552;45.776;15.892;2023-02-15T00:58:44;102224.28;;;1.95;100.00
53651;BME280;39552;45.776;15.892;2023-02-15T01:01:14;102218.03;;;1.93;100.00
53651;BME280;39552;45.776;15.892;2023-02-15T01:03:41;102215.38;;;1.93;100.00
53651;BME280;39552;45.776;15.892;2023-02-15T01:06:08;102229.47;;;1.76;100.00
53651;BME280;39552;45.776;15.892;2023-02-15T01:08:36;102225.03;;;1.77;100.00
53651;BME280;39552;45.776;15.892;2023-02-15T01:11:04;102233.03;;;1.75;100.00
53651;BME280;39552;45.776;15.892;2023-02-15T01:13:31;102213.34;;;1.61;100.00
53651;BME280;39552;45.776;15.892;2023-02-15T01:15:57;102207.19;;;1.68;100.00
53651;BME280;39552;45.776;15.892;2023-02-15T01:18:26;102215.41;;;1.96;100.00
53651;BME280;39552;45.776;15.892;2023-02-15T01:20:53;102193.91;;;1.77;100.00
53651;BME280;39552;45.776;15.892;2023-02-15T01:23:20;102201.97;;;1.84;100.00
53651;BME280;39552;45.776;15.892;2023-02-15T01:25:46;102186.88;;;1.89;100.00
53651;BME280;39552;45.776;15.892;2023-02-15T01:28:15;102208.34;;;2.01;100.00
53651;BME280;39552;45.776;15.892;2023-02-15T01:30:49;102205.75;;;2.15;100.00
53651;BME280;39552;45.776;15.892;2023-02-15T01:33:19;102199.34;;;1.90;100.00
53651;BME280;39552;45.776;15.892;2023-02-15T01:35:56;102192.16;;;1.83;100.00
53651;BME280;39552;45.776;15.892;2023-02-15T01:41:44;102186.16;;;2.11;100.00
53651;BME280;39552;45.776;15.892;2023-02-15T01:44:45;102182.59;;;2.11;100.00
53651;BME280;39552;45.776;15.892;2023-02-15T01:47:15;102188.75;;;2.02;100.00
53651;BME280;39552;45.776;15.892;2023-02-15T01:49:44;102181.69;;;2.09;100.00
53651;BME280;39552;45.776;15.892;2023-02-15T01:52:16;102174.38;;;1.80;100.00
53651;BME280;39552;45.776;15.892;2023-02-15T01:54:45;102169.00;;;1.74;100.00
53651;BME280;39552;45.776;15.892;2023-02-15T01:57:17;102182.41;;;1.82;100.00
53651;BME280;39552;45.776;15.892;2023-02-15T01:59:49;102169.91;;;1.79;100.00
53651;BME280;39552;45.776;15.892;2023-02-15T02:02:18;102161.88;;;1.74;100.00
53651;BME280;39552;45.776;15.892;2023-02-15T02:04:48;102172.66;;;1.90;100.00
53651;BME280;39552;45.776;15.892;2023-02-15T02:07:19;102177.16;;;1.99;100.00
53651;BME280;39552;45.776;15.892;2023-02-15T02:09:47;102165.47;;;1.83;100.00
53651;BME280;39552;45.776;15.892;2023-02-15T02:12:15;102171.66;;;1.75;100.00
53651;BME280;39552;45.776;15.892;2023-02-15T02:14:44;102160.09;;;1.76;100.00
53651;BME280;39552;45.776;15.892;2023-02-15T02:17:16;102161.00;;;1.77;100.00
53651;BME280;39552;45.776;15.892;2023-02-15T02:20:11;102171.66;;;1.75;100.00
53651;BME280;39552;45.776;15.892;2023-02-15T02:23:02;102168.13;;;1.78;100.00
53651;BME280;39552;45.776;15.892;2023-02-15T02:26:18;102165.38;;;1.67;100.00
53651;BME280;39552;45.776;15.892;2023-02-15T02:32:04;102157.41;;;1.75;100.00
53651;BME280;39552;45.776;15.892;2023-02-15T02:34:43;102131.47;;;1.54;100.00
53651;BME280;39552;45.776;15.892;2023-02-15T02:37:21;102140.19;;;1.33;100.00
53651;BME280;39552;45.776;15.892;2023-02-15T02:39:55;102144.94;;;1.69;100.00
53651;BME280;39552;45.776;15.892;2023-02-15T02:42:28;102142.25;;;1.68;100.00
53651;BME280;39552;45.776;15.892;2023-02-15T02:45:03;102154.63;;;1.55;100.00
53651;BME280;39552;45.776;15.892;2023-02-15T02:47:34;102149.31;;;1.61;100.00
53651;BME280;39552;45.776;15.892;2023-02-15T02:50:06;102143.84;;;1.46;100.00
53651;BME280;39552;45.776;15.892;2023-02-15T02:52:39;102151.94;;;1.55;100.00
53651;BME280;39552;45.776;15.892;2023-02-15T02:55:10;102141.94;;;1.31;100.00
53651;BME280;39552;45.776;15.892;2023-02-15T02:57:42;102149.09;;;1.33;100.00
53651;BME280;39552;45.776;15.892;2023-02-15T03:00:12;102165.84;;;1.20;100.00
53651;BME280;39552;45.776;15.892;2023-02-15T03:02:42;102141.03;;;1.27;100.00
53651;BME280;39552;45.776;15.892;2023-02-15T03:05:15;102151.78;;;1.38;100.00
53651;BME280;39552;45.776;15.892;2023-02-15T03:07:48;102142.97;;;1.48;100.00
53651;BME280;39552;45.776;15.892;2023-02-15T03:10:18;102145.63;;;1.44;100.00
53651;BME280;39552;45.776;15.892;2023-02-15T03:12:48;102140.31;;;1.48;100.00
53651;BME280;39552;45.776;15.892;2023-02-15T03:15:17;102155.34;;;1.38;100.00
53651;BME280;39552;45.776;15.892;2023-02-15T03:17:49;102148.19;;;1.30;100.00
53651;BME280;39552;45.776;15.892;2023-02-15T03:20:22;102159.84;;;1.44;100.00
53651;BME280;39552;45.776;15.892;2023-02-15T03:22:53;102158.84;;;1.33;100.00
53651;BME280;39552;45.776;15.892;2023-02-15T03:25:22;102158.00;;;1.35;100.00
53651;BME280;39552;45.776;15.892;2023-02-15T03:27:53;102159.03;;;1.51;100.00
53651;BME280;39552;45.776;15.892;2023-02-15T03:30:22;102165.06;;;1.30;100.00
53651;BME280;39552;45.776;15.892;2023-02-15T03:32:49;102153.34;;;1.14;100.00
53651;BME280;39552;45.776;15.892;2023-02-15T03:35:21;102146.28;;;1.18;100.00
53651;BME280;39552;45.776;15.892;2023-02-15T03:37:52;102150.84;;;1.30;100.00
53651;BME280;39552;45.776;15.892;2023-02-15T03:40:23;102144.72;;;1.42;100.00
53651;BME280;39552;45.776;15.892;2023-02-15T03:42:57;102129.63;;;1.44;100.00
53651;BME280;39552;45.776;15.892;2023-02-15T03:45:29;102148.22;;;1.39;100.00
53651;BME280;39552;45.776;15.892;2023-02-15T03:47:59;102153.47;;;1.24;100.00
53651;BME280;39552;45.776;15.892;2023-02-15T03:50:30;102148.88;;;1.10;100.00
53651;BME280;39552;45.776;15.892;2023-02-15T03:52:58;102145.13;;;0.94;100.00
53651;BME280;39552;45.776;15.892;2023-02-15T03:55:26;102156.91;;;1.15;100.00
53651;BME280;39552;45.776;15.892;2023-02-15T03:57:54;102140.91;;;1.13;100.00
53651;BME280;39552;45.776;15.892;2023-02-15T04:00:22;102140.09;;;1.21;100.00
53651;BME280;39552;45.776;15.892;2023-02-15T04:03:11;102151.63;;;1.21;100.00
53651;BME280;39552;45.776;15.892;2023-02-15T04:05:44;102127.78;;;1.38;100.00
53651;BME280;39552;45.776;15.892;2023-02-15T04:08:13;102133.94;;;1.28;100.00
53651;BME280;39552;45.776;15.892;2023-02-15T04:10:40;102135.84;;;1.41;100.00
53651;BME280;39552;45.776;15.892;2023-02-15T04:13:07;102128.56;;;1.25;100.00
53651;BME280;39552;45.776;15.892;2023-02-15T04:15:34;102119.56;;;1.10;100.00
53651;BME280;39552;45.776;15.892;2023-02-15T04:18:02;102124.00;;;1.11;100.00
53651;BME280;39552;45.776;15.892;2023-02-15T04:20:28;102131.00;;;1.00;100.00
53651;BME280;39552;45.776;15.892;2023-02-15T04:22:56;102141.78;;;1.12;100.00
53651;BME280;39552;45.776;15.892;2023-02-15T04:25:23;102135.31;;;0.87;100.00
53651;BME280;39552;45.776;15.892;2023-02-15T04:27:51;102132.72;;;0.96;100.00
53651;BME280;39552;45.776;15.892;2023-02-15T04:30:20;102126.66;;;1.08;100.00
53651;BME280;39552;45.776;15.892;2023-02-15T04:32:47;102140.84;;;1.07;100.00
53651;BME280;39552;45.776;15.892;2023-02-15T04:35:14;102130.28;;;1.18;100.00
53651;BME280;39552;45.776;15.892;2023-02-15T04:37:42;102141.94;;;1.31;100.00
53651;BME280;39552;45.776;15.892;2023-02-15T04:40:12;102134.59;;;1.05;100.00
53651;BME280;39552;45.776;15.892;2023-02-15T04:42:39;102126.50;;;0.93;100.00
53651;BME280;39552;45.776;15.892;2023-02-15T04:45:14;102120.25;;;0.89;100.00
53651;BME280;39552;45.776;15.892;2023-02-15T04:47:41;102113.94;;;0.83;100.00
53651;BME280;39552;45.776;15.892;2023-02-15T04:50:08;102113.97;;;0.84;100.00
53651;BME280;39552;45.776;15.892;2023-02-15T04:52:35;102130.78;;;0.80;100.00
53651;BME280;39552;45.776;15.892;2023-02-15T04:55:02;102122.06;;;0.93;100.00
53651;BME280;39552;45.776;15.892;2023-02-15T04:57:30;102112.34;;;1.02;100.00
53651;BME280;39552;45.776;15.892;2023-02-15T04:59:57;102123.72;;;0.84;100.00
53651;BME280;39552;45.776;15.892;2023-02-15T05:02:23;102136.16;;;0.83;100.00
53651;BME280;39552;45.776;15.892;2023-02-15T05:04:50;102130.91;;;0.92;100.00
53651;BME280;39552;45.776;15.892;2023-02-15T05:07:16;102132.75;;;0.98;100.00
53651;BME280;39552;45.776;15.892;2023-02-15T05:09:42;102139.00;;;1.02;100.00
53651;BME280;39552;45.776;15.892;2023-02-15T05:12:09;102140.78;;;1.01;100.00
53651;BME280;39552;45.776;15.892;2023-02-15T05:14:37;102141.50;;;0.86;100.00
53651;BME280;39552;45.776;15.892;2023-02-15T05:17:03;102139.75;;;0.85;100.00
53651;BME280;39552;45.776;15.892;2023-02-15T05:19:30;102144.25;;;0.91;100.00
53651;BME280;39552;45.776;15.892;2023-02-15T05:21:56;102146.91;;;0.91;100.00
53651;BME280;39552;45.776;15.892;2023-02-15T05:24:23;102147.63;;;0.79;100.00
53651;BME280;39552;45.776;15.892;2023-02-15T05:26:49;102146.13;;;1.03;100.00
53651;BME280;39552;45.776;15.892;2023-02-15T05:29:16;102140.53;;;0.78;100.00
53651;BME280;39552;45.776;15.892;2023-02-15T05:31:44;102145.78;;;0.73;100.00
53651;BME280;39552;45.776;15.892;2023-02-15T05:34:11;102151.25;;;0.84;100.00
53651;BME280;39552;45.776;15.892;2023-02-15T05:36:37;102151.94;;;0.66;100.00
53651;BME280;39552;45.776;15.892;2023-02-15T05:39:04;102149.53;;;0.88;100.00
53651;BME280;39552;45.776;15.892;2023-02-15T05:41:30;102151.22;;;0.80;100.00
53651;BME280;39552;45.776;15.892;2023-02-15T05:43:57;102153.97;;;0.87;100.00
53651;BME280;39552;45.776;15.892;2023-02-15T05:46:23;102161.22;;;1.04;100.00
53651;BME280;39552;45.776;15.892;2023-02-15T05:51:21;102151.50;;;1.07;100.00
53651;BME280;39552;45.776;15.892;2023-02-15T05:53:47;102161.22;;;1.01;100.00
53651;BME280;39552;45.776;15.892;2023-02-15T05:56:14;102155.63;;;0.79;100.00
53651;BME280;39552;45.776;15.892;2023-02-15T05:58:40;102163.91;;;1.05;100.00
53651;BME280;39552;45.776;15.892;2023-02-15T06:01:07;102161.94;;;0.89;100.00
53651;BME280;39552;45.776;15.892;2023-02-15T06:03:34;102169.91;;;0.84;100.00
53651;BME280;39552;45.776;15.892;2023-02-15T06:06:00;102160.22;;;0.91;100.00
53651;BME280;39552;45.776;15.892;2023-02-15T06:08:29;102168.94;;;0.76;100.00
53651;BME280;39552;45.776;15.892;2023-02-15T06:10:55;102168.88;;;0.73;100.00
53651;BME280;39552;45.776;15.892;2023-02-15T06:13:22;102169.91;;;0.84;100.00
53651;BME280;39552;45.776;15.892;2023-02-15T06:15:48;102172.53;;;0.83;100.00
53651;BME280;39552;45.776;15.892;2023-02-15T06:18:15;102165.34;;;0.74;100.00
53651;BME280;39552;45.776;15.892;2023-02-15T06:20:47;102170.88;;;0.91;100.00
53651;BME280;39552;45.776;15.892;2023-02-15T06:23:14;102166.34;;;0.82;100.00
53651;BME280;39552;45.776;15.892;2023-02-15T06:25:43;102175.94;;;0.69;100.00
53651;BME280;39552;45.776;15.892;2023-02-15T06:28:10;102171.69;;;0.87;100.00
53651;BME280;39552;45.776;15.892;2023-02-15T06:30:36;102179.78;;;0.91;100.00
53651;BME280;39552;45.776;15.892;2023-02-15T06:33:03;102178.78;;;0.83;100.00
53651;BME280;39552;45.776;15.892;2023-02-15T06:35:29;102175.44;;;1.01;100.00
53651;BME280;39552;45.776;15.892;2023-02-15T06:37:56;102165.38;;;0.77;100.00
53651;BME280;39552;45.776;15.892;2023-02-15T06:40:22;102175.38;;;0.96;100.00
53651;BME280;39552;45.776;15.892;2023-02-15T06:42:51;102172.47;;;0.75;100.00
53651;BME280;39552;45.776;15.892;2023-02-15T06:45:17;102161.75;;;0.70;100.00
53651;BME280;39552;45.776;15.892;2023-02-15T06:47:44;102174.38;;;0.87;100.00
53651;BME280;39552;45.776;15.892;2023-02-15T06:50:11;102180.81;;;1.07;100.00
53651;BME280;39552;45.776;15.892;2023-02-15T06:52:38;102176.47;;;1.17;100.00
53651;BME280;39552;45.776;15.892;2023-02-15T06:55:05;102167.34;;;0.93;100.00
53651;BME280;39552;45.776;15.892;2023-02-15T06:57:32;102163.88;;;0.99;100.00
53651;BME280;39552;45.776;15.892;2023-02-15T07:00:00;102173.53;;;0.92;100.00
53651;BME280;39552;45.776;15.892;2023-02-15T07:02:27;102170.34;;;1.24;100.00
53651;BME280;39552;45.776;15.892;2023-02-15T07:04:54;102188.91;;;1.15;100.00
53651;BME280;39552;45.776;15.892;2023-02-15T07:07:20;102186.38;;;1.29;100.00
53651;BME280;39552;45.776;15.892;2023-02-15T07:09:47;102162.03;;;0.96;100.00
53651;BME280;39552;45.776;15.892;2023-02-15T07:12:14;102168.47;;;1.17;100.00
53651;BME280;39552;45.776;15.892;2023-02-15T07:14:41;102187.09;;;1.12;100.00
53651;BME280;39552;45.776;15.892;2023-02-15T07:17:09;102176.50;;;1.22;100.00
53651;BME280;39552;45.776;15.892;2023-02-15T07:19:55;102167.88;;;1.47;100.00
53651;BME280;39552;45.776;15.892;2023-02-15T07:22:22;102159.03;;;1.54;100.00
53651;BME280;39552;45.776;15.892;2023-02-15T07:24:49;102169.47;;;1.27;100.00
53651;BME280;39552;45.776;15.892;2023-02-15T07:27:15;102175.56;;;1.15;100.00
53651;BME280;39552;45.776;15.892;2023-02-15T07:29:42;102179.88;;;1.02;100.00
53651;BME280;39552;45.776;15.892;2023-02-15T07:32:11;102161.56;;;1.37;100.00
53651;BME280;39552;45.776;15.892;2023-02-15T07:34:40;102162.56;;;1.49;100.00
53651;BME280;39552;45.776;15.892;2023-02-15T07:37:06;102177.00;;;1.77;100.00
53651;BME280;39552;45.776;15.892;2023-02-15T07:39:33;102157.47;;;1.78;100.00
53651;BME280;39552;45.776;15.892;2023-02-15T07:42:00;102167.09;;;1.59;100.00
53651;BME280;39552;45.776;15.892;2023-02-15T07:44:27;102161.91;;;1.76;100.00
53651;BME280;39552;45.776;15.892;2023-02-15T07:46:54;102160.94;;;1.71;100.00
53651;BME280;39552;45.776;15.892;2023-02-15T07:49:22;102167.22;;;1.77;100.00
53651;BME280;39552;45.776;15.892;2023-02-15T07:51:49;102150.59;;;2.23;100.00
53651;BME280;39552;45.776;15.892;2023-02-15T07:54:16;102149.63;;;2.06;100.00
53651;BME280;39552;45.776;15.892;2023-02-15T07:56:43;102157.69;;;1.06;100.00
53651;BME280;39552;45.776;15.892;2023-02-15T07:59:09;102178.34;;;1.27;100.00
53651;BME280;39552;45.776;15.892;2023-02-15T08:01:39;102152.91;;;1.68;100.00
53651;BME280;39552;45.776;15.892;2023-02-15T08:04:07;102178.50;;;1.41;100.00
53651;BME280;39552;45.776;15.892;2023-02-15T08:06:36;102167.03;;;1.54;100.00
53651;BME280;39552;45.776;15.892;2023-02-15T08:09:04;102162.69;;;1.67;100.00
53651;BME280;39552;45.776;15.892;2023-02-15T08:11:33;102155.66;;;1.77;100.00
53651;BME280;39552;45.776;15.892;2023-02-15T08:14:01;102165.31;;;1.61;100.00
53651;BME280;39552;45.776;15.892;2023-02-15T08:16:30;102163.81;;;1.97;100.00
53651;BME280;39552;45.776;15.892;2023-02-15T08:18:59;102144.75;;;1.43;100.00
53651;BME280;39552;45.776;15.892;2023-02-15T08:21:27;102151.84;;;1.46;100.00
53651;BME280;39552;45.776;15.892;2023-02-15T08:23:56;102149.09;;;1.36;100.00
53651;BME280;39552;45.776;15.892;2023-02-15T08:26:24;102164.28;;;1.47;100.00
53651;BME280;39552;45.776;15.892;2023-02-15T08:28:51;102144.19;;;1.90;100.00
53651;BME280;39552;45.776;15.892;2023-02-15T08:31:18;102149.47;;;1.83;100.00
53651;BME280;39552;45.776;15.892;2023-02-15T08:33:47;102153.31;;;2.31;100.00
53651;BME280;39552;45.776;15.892;2023-02-15T08:36:16;102147.94;;;2.19;100.00
53651;BME280;39552;45.776;15.892;2023-02-15T08:38:43;102170.97;;;2.01;100.00
53651;BME280;39552;45.776;15.892;2023-02-15T08:41:16;102166.69;;;2.34;100.00
53651;BME280;39552;45.776;15.892;2023-02-15T08:43:43;102146.38;;;2.67;100.00
53651;BME280;39552;45.776;15.892;2023-02-15T08:46:11;102154.34;;;2.62;100.00
53651;BME280;39552;45.776;15.892;2023-02-15T08:48:38;102164.22;;;2.80;100.00
53651;BME280;39552;45.776;15.892;2023-02-15T08:51:07;102153.53;;;2.79;100.00
53651;BME280;39552;45.776;15.892;2023-02-15T08:53:34;102157.03;;;2.65;100.00
53651;BME280;39552;45.776;15.892;2023-02-15T08:56:01;102163.34;;;2.95;100.00
53651;BME280;39552;45.776;15.892;2023-02-15T08:58:29;102164.25;;;2.86;100.00
53651;BME280;39552;45.776;15.892;2023-02-15T09:00:56;102150.06;;;3.30;100.00
53651;BME280;39552;45.776;15.892;2023-02-15T09:03:22;102156.28;;;3.09;100.00
53651;BME280;39552;45.776;15.892;2023-02-15T09:05:49;102158.06;;;3.47;100.00
53651;BME280;39552;45.776;15.892;2023-02-15T09:08:15;102148.25;;;3.57;100.00
53651;BME280;39552;45.776;15.892;2023-02-15T09:10:42;102152.75;;;3.61;100.00
53651;BME280;39552;45.776;15.892;2023-02-15T09:13:08;102152.72;;;3.55;100.00
53651;BME280;39552;45.776;15.892;2023-02-15T09:15:36;102154.50;;;3.16;100.00
53651;BME280;39552;45.776;15.892;2023-02-15T09:18:03;102155.41;;;3.37;100.00
53651;BME280;39552;45.776;15.892;2023-02-15T09:20:29;102150.06;;;3.46;100.00
53651;BME280;39552;45.776;15.892;2023-02-15T09:22:56;102148.28;;;3.45;100.00
53651;BME280;39552;45.776;15.892;2023-02-15T09:25:28;102149.16;;;3.62;100.00
53651;BME280;39552;45.776;15.892;2023-02-15T09:27:54;102152.72;;;3.33;100.00
53651;BME280;39552;45.776;15.892;2023-02-15T09:30:21;102157.22;;;3.58;100.00
53651;BME280;39552;45.776;15.892;2023-02-15T09:32:49;102159.88;;;3.39;100.00
53651;BME280;39552;45.776;15.892;2023-02-15T09:35:15;102153.66;;;3.63;100.00
53651;BME280;39552;45.776;15.892;2023-02-15T09:37:42;102154.53;;;3.73;100.00
53651;BME280;39552;45.776;15.892;2023-02-15T09:40:08;102155.41;;;3.70;100.00
53651;BME280;39552;45.776;15.892;2023-02-15T09:42:47;102148.25;;;3.99;100.00
53651;BME280;39552;45.776;15.892;2023-02-15T09:45:25;102141.06;;;4.08;100.00
53651;BME280;39552;45.776;15.892;2023-02-15T09:47:57;102140.16;;;4.23;100.00
53651;BME280;39552;45.776;15.892;2023-02-15T09:50:29;102136.56;;;4.23;100.00
53651;BME280;39552;45.776;15.892;2023-02-15T09:53:05;102133.88;;;4.29;100.00
53651;BME280;39552;45.776;15.892;2023-02-15T09:55:41;102124.03;;;4.34;100.00
53651;BME280;39552;45.776;15.892;2023-02-15T09:58:13;102140.13;;;4.28;100.00
53651;BME280;39552;45.776;15.892;2023-02-15T10:00:46;102133.72;;;4.61;100.00
53651;BME280;39552;45.776;15.892;2023-02-15T10:03:21;102127.44;;;4.68;100.00
53651;BME280;39552;45.776;15.892;2023-02-15T10:05:53;102128.34;;;4.69;100.00
53651;BME280;39552;45.776;15.892;2023-02-15T10:08:31;102124.69;;;4.85;100.00
53651;BME280;39552;45.776;15.892;2023-02-15T10:11:05;102118.44;;;4.80;100.00
53651;BME280;39552;45.776;15.892;2023-02-15T10:13:36;102107.66;;;4.92;100.00
53651;BME280;39552;45.776;15.892;2023-02-15T10:16:09;102108.50;;;4.98;100.00
53651;BME280;39552;45.776;15.892;2023-02-15T10:21:35;102096.63;;;5.31;100.00
53651;BME280;39552;45.776;15.892;2023-02-15T10:24:10;102091.25;;;5.32;100.00
53651;BME280;39552;45.776;15.892;2023-02-15T10:26:43;102088.47;;;5.43;100.00
53651;BME280;39552;45.776;15.892;2023-02-15T10:29:13;102075.81;;;5.59;100.00
53651;BME280;39552;45.776;15.892;2023-02-15T10:32:10;102074.91;;;5.60;100.00
53651;BME280;39552;45.776;15.892;2023-02-15T10:34:43;102063.19;;;5.67;100.00
53651;BME280;39552;45.776;15.892;2023-02-15T10:37:23;102063.94;;;5.83;100.00
53651;BME280;39552;45.776;15.892;2023-02-15T10:39:54;102053.06;;;5.94;100.00
53651;BME280;39552;45.776;15.892;2023-02-15T10:42:37;102053.06;;;5.97;100.00
53651;BME280;39552;45.776;15.892;2023-02-15T10:45:10;102049.44;;;6.00;100.00
53651;BME280;39552;45.776;15.892;2023-02-15T10:47:47;102044.09;;;5.97;100.00
53651;BME280;39552;45.776;15.892;2023-02-15T10:53:17;102034.84;;;6.21;100.00
53651;BME280;39552;45.776;15.892;2023-02-15T10:55:48;102045.44;;;6.32;100.00
53651;BME280;39552;45.776;15.892;2023-02-15T10:58:17;102031.13;;;6.33;100.00
53651;BME280;39552;45.776;15.892;2023-02-15T11:00:49;102032.84;;;6.37;100.00
53651;BME280;39552;45.776;15.892;2023-02-15T11:03:22;102022.81;;;6.49;100.00
53651;BME280;39552;45.776;15.892;2023-02-15T11:05:57;102014.56;;;6.60;100.00
53651;BME280;39552;45.776;15.892;2023-02-15T11:08:29;102018.28;;;6.53;100.00
53651;BME280;39552;45.776;15.892;2023-02-15T11:10:58;102007.38;;;6.62;100.00
53651;BME280;39552;45.776;15.892;2023-02-15T11:13:31;101999.28;;;6.64;100.00
53651;BME280;39552;45.776;15.892;2023-02-15T11:16:00;101996.44;;;6.76;100.00
53651;BME280;39552;45.776;15.892;2023-02-15T11:18:31;101991.47;;;7.03;100.00
53651;BME280;39552;45.776;15.892;2023-02-15T11:20:59;101989.00;;;6.92;100.00
53651;BME280;39552;45.776;15.892;2023-02-15T11:23:29;101984.28;;;7.05;100.00
53651;BME280;39552;45.776;15.892;2023-02-15T11:26:10;101982.63;;;6.96;100.00
53651;BME280;39552;45.776;15.892;2023-02-15T11:28:39;101979.13;;;6.91;100.00
53651;BME280;39552;45.776;15.892;2023-02-15T11:31:11;101970.72;;;7.11;100.00
53651;BME280;39552;45.776;15.892;2023-02-15T11:33:40;101967.84;;;7.20;100.00
53651;BME280;39552;45.776;15.892;2023-02-15T11:36:11;101962.38;;;7.26;100.00
53651;BME280;39552;45.776;15.892;2023-02-15T11:38:41;101953.44;;;7.24;100.00
53651;BME280;39552;45.776;15.892;2023-02-15T11:41:08;101957.78;;;7.32;100.00
53651;BME280;39552;45.776;15.892;2023-02-15T11:43:37;101958.69;;;7.32;100.00
53651;BME280;39552;45.776;15.892;2023-02-15T11:46:04;101946.19;;;7.28;100.00
53651;BME280;39552;45.776;15.892;2023-02-15T11:48:31;101946.03;;;7.36;100.00
53651;BME280;39552;45.776;15.892;2023-02-15T11:50:58;101939.75;;;7.37;100.00
53651;BME280;39552;45.776;15.892;2023-02-15T11:53:25;101938.72;;;7.44;100.00
53651;BME280;39552;45.776;15.892;2023-02-15T11:55:56;101936.03;;;7.44;100.00
53651;BME280;39552;45.776;15.892;2023-02-15T11:58:25;101935.16;;;7.42;100.00
53651;BME280;39552;45.776;15.892;2023-02-15T12:00:55;101933.47;;;7.36;100.00
53651;BME280;39552;45.776;15.892;2023-02-15T12:03:24;101927.13;;;7.39;100.00
53651;BME280;39552;45.776;15.892;2023-02-15T12:05:53;101924.97;;;7.58;100.00
53651;BME280;39552;45.776;15.892;2023-02-15T12:08:22;101924.69;;;7.72;100.00
53651;BME280;39552;45.776;15.892;2023-02-15T12:10:53;101926.66;;;7.63;100.00
53651;BME280;39552;45.776;15.892;2023-02-15T12:13:24;101919.28;;;7.72;100.00
53651;BME280;39552;45.776;15.892;2023-02-15T12:15:52;101925.41;;;7.80;100.00
53651;BME280;39552;45.776;15.892;2023-02-15T12:18:21;101916.59;;;7.72;100.00
53651;BME280;39552;45.776;15.892;2023-02-15T12:20:57;101916.38;;;7.82;100.00
53651;BME280;39552;45.776;15.892;2023-02-15T12:23:24;101918.94;;;7.88;100.00
53651;BME280;39552;45.776;15.892;2023-02-15T12:25:54;101908.16;;;7.88;100.00
53651;BME280;39552;45.776;15.892;2023-02-15T12:28:23;101905.44;;;7.90;100.00
53651;BME280;39552;45.776;15.892;2023-02-15T12:30:53;101907.06;;;7.97;100.00
53651;BME280;39552;45.776;15.892;2023-02-15T12:33:23;101900.63;;;8.04;100.00
53651;BME280;39552;45.776;15.892;2023-02-15T12:35:54;101892.66;;;8.00;100.00
53651;BME280;39552;45.776;15.892;2023-02-15T12:38:23;101887.13;;;8.04;100.00
53651;BME280;39552;45.776;15.892;2023-02-15T12:40:56;101886.13;;;8.10;100.00
53651;BME280;39552;45.776;15.892;2023-02-15T12:43:24;101874.22;;;8.19;100.00
53651;BME280;39552;45.776;15.892;2023-02-15T12:45:52;101867.13;;;8.15;100.00
53651;BME280;39552;45.776;15.892;2023-02-15T12:48:19;101855.13;;;8.28;100.00
53651;BME280;39552;45.776;15.892;2023-02-15T12:50:46;101855.03;;;8.33;100.00
53651;BME280;39552;45.776;15.892;2023-02-15T12:53:23;101853.78;;;8.48;100.00
53651;BME280;39552;45.776;15.892;2023-02-15T12:55:58;101858.13;;;8.53;100.00
53651;BME280;39552;45.776;15.892;2023-02-15T12:58:26;101850.41;;;8.36;100.00
53651;BME280;39552;45.776;15.892;2023-02-15T13:01:22;101837.22;;;8.25;100.00
53651;BME280;39552;45.776;15.892;2023-02-15T13:03:56;101840.59;;;8.34;100.00
53651;BME280;39552;45.776;15.892;2023-02-15T13:06:25;101830.56;;;8.40;100.00
53651;BME280;39552;45.776;15.892;2023-02-15T13:08:53;101832.13;;;8.51;100.00